Time;durP1;ratioP1;P1;durP2;ratioP2;P2;SDS_P1;SDS_P2;PMS_P1;PMS_P2;Temp;Humidity;BMP_temperature;BMP_pressure;BME280_temperature;BME280_humidity;BME280_pressure;Samples;Min_cycle;Max_cycle;Signal;HPM_P1;HPM_P2
2021/01/20 00:04:13;;;;;;;;;;;4.20;96.20;;;3.05;69.26;95342.19;10373273;28;1932;-87
2021/01/20 00:09:15;;;;;;;;;;;5.80;98.00;;;2.97;71.05;95337.28;10377851;28;1802;-88
2021/01/20 00:14:17;;;;;;;;;;;4.20;98.90;;;2.89;71.81;95324.38;10369017;28;2095;-88
2021/01/20 00:19:19;;;;;;;;;;;4.60;99.90;;;2.70;72.59;95327.19;10404777;28;1690;-86
2021/01/20 00:24:21;;;;;;;;;;;4.00;99.90;;;2.64;71.94;95317.53;10386773;28;1957;-91
2021/01/20 00:29:23;;;;;;;;;;;3.90;99.90;;;2.64;72.93;95312.22;2871272;23;3607;-85
2021/01/20 00:34:25;;;;;;;;;;;4.80;99.90;;;2.63;72.88;95302.66;10400991;28;1601;-87
2021/01/20 00:39:27;;;;;;;;;;;3.80;99.90;;;2.57;72.46;95298.28;10382690;28;3595;-87
2021/01/20 00:44:30;;;;;;;;;;;4.40;99.90;;;2.47;73.21;95295.41;10367416;28;1910;-86
2021/01/20 00:49:32;;;;;;;;;;;5.50;99.90;;;2.51;72.38;95296.56;10369277;28;2144;-86
2021/01/20 00:54:34;;;;;;;;;;;4.50;99.90;;;2.47;72.48;95308.66;10380628;28;1730;-87
2021/01/20 00:59:36;;;;;;;;;;;5.40;99.90;;;2.46;72.73;95312.38;10401572;28;1430;-88
2021/01/20 01:04:38;;;;;;;;;;;4.30;99.90;;;2.51;71.45;95306.38;10374367;28;1918;-87
2021/01/20 01:09:41;;;;;;;;;;;4.30;99.90;;;2.58;70.76;95320.31;10397791;28;1508;-83
2021/01/20 01:14:43;;;;;;;;;;;3.70;99.90;;;2.76;68.03;95322.81;10365730;28;1895;-85
2021/01/20 01:19:46;;;;;;;;;;;4.40;99.90;;;2.58;69.32;95333.56;10382578;28;2089;-86
2021/01/20 01:30:39;;;;;;;;;;;3.70;99.80;;;2.32;70.95;95327.75;10393747;28;1737;-87
2021/01/20 01:41:33;;;;;;;;;;;3.70;99.90;;;2.01;73.94;95344.81;10386447;28;2035;-87
2021/01/20 01:46:35;;;;;;;;;;;3.30;99.90;;;1.84;75.18;95343.88;10378192;28;2380;-86
2021/01/20 01:57:18;;;;;;;;;;;3.00;99.90;;;1.62;76.76;95340.97;10369157;28;2246;-88
2021/01/20 02:02:21;;;;;;;;;;;3.60;99.90;;;1.53;77.20;95332.56;10404361;28;1919;-88
2021/01/20 02:07:23;;;;;;;;;;;2.80;99.90;;;1.46;77.65;95331.84;10397298;28;1883;-89
2021/01/20 02:12:25;;;;;;;;;;;2.90;99.90;;;1.41;77.83;95328.28;10369418;28;3767;-87
2021/01/20 02:17:27;;;;;;;;;;;2.70;99.90;;;1.40;78.55;95316.03;10381192;28;1888;-86
2021/01/20 02:22:30;;;;;;;;;;;2.60;99.90;;;1.41;78.38;95312.38;10414768;28;1947;-87
2021/01/20 02:27:32;;;;;;;;;;;2.60;99.90;;;1.33;78.12;95324.09;10391216;28;1420;-89
2021/01/20 02:32:35;;;;;;;;;;;2.50;99.90;;;1.25;79.09;95313.81;10398084;28;1351;-87
2021/01/20 02:37:38;;;;;;;;;;;2.50;99.90;;;1.30;78.24;95304.19;10390212;28;1901;-86
2021/01/20 02:42:40;;;;;;;;;;;2.50;99.90;;;1.36;76.95;95310.41;10382455;28;2042;-87
2021/01/20 02:47:42;;;;;;;;;;;4.40;99.90;;;1.41;75.48;95315.84;10420823;28;2339;-85
2021/01/20 02:52:45;;;;;;;;;;;2.50;99.90;;;1.39;76.00;95315.22;10381074;28;1740;-85
2021/01/20 02:57:48;;;;;;;;;;;2.60;99.90;;;1.34;75.28;95309.84;10411873;28;2007;-88
2021/01/20 03:02:53;;;;;;;;;;;2.60;99.90;;;1.29;75.35;95305.22;10376464;28;2626;-88
2021/01/20 03:07:55;;;;;;;;;;;2.40;99.90;;;1.24;76.53;95304.28;10412910;28;1306;-88
2021/01/20 03:12:57;;;;;;;;;;;3.60;99.90;;;1.29;76.90;95305.22;10403362;28;1366;-89
2021/01/20 03:17:59;;;;;;;;;;;4.80;99.90;;;1.32;75.74;95303.94;10368781;28;1425;-90
2021/01/20 03:23:06;;;;;;;;;;;4.10;99.90;;;1.20;76.20;95295.97;10402240;28;2051;-87
2021/01/20 03:28:09;;;;;;;;;;;4.50;99.90;;;1.16;75.46;95286.88;10361279;28;2130;-88
2021/01/20 03:33:11;;;;;;;;;;;4.80;99.90;;;1.15;75.76;95287.13;10392656;28;2105;-88
2021/01/20 03:38:13;;;;;;;;;;;4.90;99.90;;;1.16;75.83;95286.06;10388937;28;1986;-89
2021/01/20 03:43:15;;;;;;;;;;;3.50;99.90;;;1.10;75.93;95279.03;10385722;28;3257;-87
2021/01/20 03:48:17;;;;;;;;;;;2.60;99.90;;;1.09;76.88;95272.94;10416357;28;2569;-87
2021/01/20 03:53:20;;;;;;;;;;;2.20;99.90;;;1.17;76.19;95272.59;10406077;28;2120;-87
2021/01/20 03:58:22;;;;;;;;;;;4.00;99.90;;;1.12;75.99;95263.72;10395443;28;2048;-86
2021/01/20 04:03:24;;;;;;;;;;;2.30;99.90;;;1.02;76.47;95257.16;10366893;28;2200;-87
2021/01/20 04:08:26;;;;;;;;;;;2.10;99.90;;;0.98;75.78;95255.97;10413735;28;1643;-87
2021/01/20 04:13:29;;;;;;;;;;;3.00;99.90;;;0.99;76.05;95254.16;10377553;28;2467;-84
2021/01/20 04:18:32;;;;;;;;;;;2.10;99.90;;;0.95;76.63;95256.41;10385301;28;1300;-89
2021/01/20 04:23:37;;;;;;;;;;;3.90;99.90;;;0.97;76.36;95249.09;10411636;28;1886;-87
2021/01/20 04:28:39;;;;;;;;;;;2.00;99.90;;;0.97;76.32;95249.09;10433766;28;2256;-87
2021/01/20 04:33:41;;;;;;;;;;;2.40;99.90;;;0.99;76.30;95251.50;10407523;28;2861;-91
2021/01/20 04:38:43;;;;;;;;;;;3.80;99.90;;;0.96;75.78;95247.47;10397686;28;1350;-88
2021/01/20 04:43:45;;;;;;;;;;;4.30;99.90;;;0.91;76.09;95239.41;10433231;28;1891;-90
2021/01/20 04:48:48;;;;;;;;;;;2.80;99.90;;;0.95;76.40;95245.84;10392677;28;2579;-89
2021/01/20 04:53:50;;;;;;;;;;;2.80;99.90;;;1.11;75.50;95243.59;10384330;28;2479;-88
2021/01/20 04:58:53;;;;;;;;;;;2.20;99.90;;;1.17;74.94;95237.38;10408470;28;1929;-89
2021/01/20 05:03:55;;;;;;;;;;;2.90;99.90;;;1.18;74.86;95236.34;10374325;28;1973;-92
2021/01/20 05:08:57;;;;;;;;;;;3.30;99.90;;;1.17;74.73;95237.38;10396485;28;2418;-89
2021/01/20 05:14:00;;;;;;;;;;;3.90;99.90;;;1.14;75.49;95235.19;10379133;28;3835;-88
2021/01/20 05:19:04;;;;;;;;;;;2.20;99.90;;;1.14;74.89;95235.19;10383362;28;1316;-87
2021/01/20 05:24:07;;;;;;;;;;;2.30;99.90;;;1.08;75.35;95229.78;10367708;28;1891;-85
2021/01/20 05:29:09;;;;;;;;;;;4.60;99.90;;;1.02;75.79;95230.69;10362378;28;2710;-85
2021/01/20 05:34:11;;;;;;;;;;;2.10;99.90;;;1.16;75.46;95230.47;10353313;28;1651;-86
2021/01/20 05:39:13;;;;;;;;;;;3.60;99.90;;;1.04;75.73;95228.63;10392266;28;2504;-86
2021/01/20 05:44:15;;;;;;;;;;;3.00;99.90;;;1.08;76.09;95223.66;10367328;28;2086;-86
2021/01/20 05:49:18;;;;;;;;;;;3.10;99.90;;;1.07;76.94;95224.69;10383345;28;1386;-85
2021/01/20 05:54:20;;;;;;;;;;;2.10;99.90;;;1.09;76.67;95222.66;10359340;28;1712;-84
2021/01/20 05:59:22;;;;;;;;;;;2.20;99.90;;;1.08;77.05;95219.19;10410918;28;1838;-84
2021/01/20 06:04:24;;;;;;;;;;;3.80;99.90;;;0.99;77.90;95225.84;10403000;28;2116;-86
2021/01/20 06:09:29;;;;;;;;;;;2.20;99.90;;;0.93;79.08;95231.22;10371077;28;2160;-87
2021/01/20 06:14:31;;;;;;;;;;;4.10;99.90;;;0.97;79.16;95222.63;10411525;28;2276;-89
2021/01/20 06:19:35;;;;;;;;;;;2.00;99.90;;;0.93;79.13;95226.75;10375648;28;1636;-86
2021/01/20 06:24:37;;;;;;;;;;;3.30;99.90;;;0.93;79.40;95216.16;10382474;28;1993;-85
2021/01/20 06:29:43;;;;;;;;;;;2.10;99.90;;;0.82;79.89;95227.50;10401135;28;2291;-89
2021/01/20 06:34:46;;;;;;;;;;;2.50;99.90;;;0.86;80.03;95231.31;10418738;28;2360;-88
2021/01/20 06:39:51;;;;;;;;;;;2.50;99.90;;;0.94;79.17;95231.00;10393200;28;2068;-88
2021/01/20 06:44:53;;;;;;;;;;;4.00;99.90;;;1.19;78.06;95219.41;10366811;28;2226;-87
2021/01/20 06:49:56;;;;;;;;;;;2.90;99.90;;;1.20;78.00;95218.38;10378991;28;2419;-86
2021/01/20 06:54:59;;;;;;;;;;;3.40;99.90;;;1.19;76.95;95222.06;10382601;28;1885;-86
2021/01/20 07:00:04;;;;;;;;;;;2.30;99.90;;;1.29;76.67;95222.31;10371777;28;2320;-87
2021/01/20 07:05:07;;;;;;;;;;;3.70;99.90;;;1.20;78.19;95221.84;10379481;28;2012;-86
2021/01/20 07:10:14;;;;;;;;;;;2.30;99.90;;;1.40;76.22;95216.25;10395661;28;2326;-87
2021/01/20 07:15:17;;;;;;;;;;;4.70;99.90;;;1.46;76.00;95210.00;10415239;28;1351;-86
2021/01/20 07:20:19;;;;;;;;;;;2.40;99.90;;;1.61;74.59;95206.91;10430187;28;1985;-89
2021/01/20 07:25:22;;;;;;;;;;;2.60;99.90;;;1.74;73.74;95205.84;10407990;28;2308;-87
2021/01/20 07:30:25;;;;;;;;;;;3.30;99.90;;;1.79;73.98;95196.19;10394296;28;2056;-86
2021/01/20 07:35:28;;;;;;;;;;;4.00;99.90;;;1.81;73.68;95201.25;10447156;28;2157;-85
2021/01/20 07:40:35;;;;;;;;;;;2.70;99.90;;;2.04;72.31;95197.75;10405949;28;2242;-85
2021/01/20 07:45:55;;;;;;;;;;;4.40;99.90;;;2.14;71.96;95201.41;10413887;28;2227;-86
2021/01/20 07:51:00;;;;;;;;;;;3.90;99.90;;;2.22;72.37;95186.16;10404661;28;1307;-88
2021/01/20 07:56:05;;;;;;;;;;;3.30;99.90;;;2.24;72.11;95190.19;10394561;28;1908;-85
2021/01/20 08:01:07;;;;;;;;;;;3.30;99.90;;;2.34;71.17;95181.63;10403148;28;1831;-85
2021/01/20 08:06:10;;;;;;;;;;;4.70;99.90;;;2.47;70.97;95188.50;10398753;28;2119;-87
2021/01/20 08:11:14;;;;;;;;;;;3.40;99.90;;;2.60;70.84;95182.91;10411243;28;2466;-87
2021/01/20 08:16:16;;;;;;;;;;;3.60;99.90;;;2.74;69.93;95180.78;10388399;28;2521;-85
2021/01/20 08:21:19;;;;;;;;;;;4.50;99.90;;;2.84;70.80;95183.59;10368257;28;2389;-84
2021/01/20 08:26:21;;;;;;;;;;;4.60;99.90;;;3.04;69.73;95185.78;10399212;28;1894;-86
2021/01/20 08:31:24;;;;;;;;;;;3.90;99.90;;;3.24;67.69;95178.97;10413469;28;1734;-86
2021/01/20 08:36:27;;;;;;;;;;;4.10;99.90;;;3.41;66.90;95178.13;10396338;28;2301;-87
2021/01/20 08:41:29;;;;;;;;;;;5.70;99.90;;;3.57;66.52;95185.28;10390845;28;2279;-86
2021/01/20 08:46:32;;;;;;;;;;;4.40;99.90;;;3.70;66.38;95174.31;10407130;28;2348;-87
2021/01/20 08:51:35;;;;;;;;;;;5.20;99.90;;;3.87;66.25;95176.91;10410979;28;1379;-87
2021/01/20 09:08:18;;;;;;;;;;;5.20;97.80;;;4.63;63.90;95189.53;10413165;28;1643;-88
2021/01/20 09:18:41;;;;;;;;;;;5.60;95.90;;;5.38;61.28;95192.09;10410484;28;1638;-88
2021/01/20 09:23:44;;;;;;;;;;;6.10;94.30;;;5.60;58.82;95172.53;10389392;28;1895;-88
2021/01/20 09:28:47;;;;;;;;;;;6.40;91.80;;;5.58;61.31;95179.97;10413459;28;1737;-89
2021/01/20 09:33:52;;;;;;;;;;;6.50;92.20;;;5.73;60.04;95173.94;10397129;28;1601;-86
2021/01/20 09:38:59;;;;;;;;;;;6.60;91.20;;;5.85;58.03;95178.03;10427517;28;2170;-85
2021/01/20 09:44:05;;;;;;;;;;;6.70;89.00;;;6.22;57.60;95174.47;10395914;28;2017;-84
2021/01/20 10:00:34;;;;;;;;;;;7.50;84.50;;;7.14;54.76;95153.34;10408665;28;1954;-85
2021/01/20 10:05:41;;;;;;;;;;;7.80;84.00;;;7.37;54.03;95146.66;10796149;23;3720;-83
2021/01/20 10:10:44;;;;;;;;;;;8.50;83.60;;;7.46;54.29;95143.19;10349302;28;1979;-85
2021/01/20 10:15:47;;;;;;;;;;;8.30;81.40;;;7.81;50.62;95125.47;10379394;28;1983;-85
2021/01/20 10:20:51;;;;;;;;;;;8.90;79.90;;;7.90;51.92;95126.53;10374864;28;1319;-87
2021/01/20 10:25:53;;;;;;;;;;;8.60;78.60;;;7.97;49.53;95113.66;10362070;28;1981;-86
2021/01/20 10:30:56;;;;;;;;;;;9.20;77.50;;;8.21;49.88;95107.69;10394019;28;1823;-85
2021/01/20 10:35:58;;;;;;;;;;;10.50;77.50;;;8.19;50.64;95085.72;10373286;28;1993;-86
2021/01/20 10:41:00;;;;;;;;;;;9.10;76.40;;;8.46;47.70;95088.84;10348660;28;2051;-84
2021/01/20 10:46:04;;;;;;;;;;;11.00;76.10;;;8.24;49.51;95075.78;10370649;28;2005;-86
2021/01/20 10:51:06;;;;;;;;;;;9.30;75.10;;;7.85;51.33;95089.06;10368208;28;1923;-88
2021/01/20 10:56:09;;;;;;;;;;;10.40;77.70;;;7.31;51.41;95079.81;10452732;23;3551;-88
2021/01/20 11:01:13;;;;;;;;;;;8.80;75.80;;;7.05;55.73;95067.53;10405763;28;1771;-89
2021/01/20 11:06:16;;;;;;;;;;;8.20;79.00;;;6.80;55.05;95057.66;10440574;28;2336;-87
2021/01/20 11:11:18;;;;;;;;;;;7.80;79.40;;;6.56;57.08;95045.94;10448839;23;3767;-88
2021/01/20 11:16:20;;;;;;;;;;;7.60;79.90;;;6.56;55.45;95037.91;10354727;28;1983;-88
2021/01/20 11:21:22;;;;;;;;;;;7.60;80.50;;;6.54;55.00;95032.00;10389741;28;2001;-84
2021/01/20 11:26:24;;;;;;;;;;;7.50;79.60;;;6.59;54.62;95037.38;10404505;28;1898;-81
2021/01/20 11:31:27;;;;;;;;;;;7.90;79.30;;;6.56;56.18;95028.03;10399392;28;1874;-86
2021/01/20 11:36:31;;;;;;;;;;;7.60;80.20;;;6.53;56.63;95017.88;10385118;28;1825;-87
2021/01/20 11:41:33;;;;;;;;;;;7.50;80.00;;;6.58;56.79;95011.75;10403864;28;1589;-89
2021/01/20 11:46:35;;;;;;;;;;;8.30;81.20;;;6.56;54.27;95005.88;10361929;28;1925;-86
2021/01/20 11:51:39;;;;;;;;;;;9.00;79.80;;;6.54;56.50;95002.66;10371817;28;1657;-86
2021/01/20 11:56:41;;;;;;;;;;;7.40;80.00;;;6.79;55.48;94991.97;10414599;28;1968;-85
2021/01/20 12:01:44;;;;;;;;;;;7.60;80.40;;;6.98;52.76;94982.31;10361721;28;1881;-83
2021/01/20 12:06:46;;;;;;;;;;;7.90;77.70;;;7.05;52.62;94974.81;10374449;28;2058;-84
2021/01/20 12:11:48;;;;;;;;;;;8.00;76.90;;;7.21;52.45;94956.88;10342471;28;1839;-86
2021/01/20 12:16:50;;;;;;;;;;;8.20;76.80;;;7.45;51.99;94945.59;10369551;28;1922;-84
2021/01/20 12:21:52;;;;;;;;;;;9.00;77.50;;;7.55;53.43;94943.66;10380644;28;1751;-85
2021/01/20 12:26:54;;;;;;;;;;;8.40;77.80;;;7.54;52.31;94920.66;10404758;28;1943;-83
2021/01/20 12:31:55;;;;;;;;;;;8.40;76.70;;;7.59;52.28;94920.63;10386188;28;2067;-85
2021/01/20 12:37:08;;;;;;;;;;;8.50;77.00;;;7.64;52.46;94909.13;10369485;28;1636;-84
2021/01/20 12:42:10;;;;;;;;;;;8.50;76.70;;;7.65;52.92;94900.00;10387023;28;1952;-84
2021/01/20 12:47:12;;;;;;;;;;;8.60;76.40;;;7.46;54.22;94891.81;10366762;28;1899;-82
2021/01/20 12:52:14;;;;;;;;;;;9.50;78.30;;;7.34;53.57;94894.03;10372949;28;1292;-84
2021/01/20 12:57:15;;;;;;;;;;;8.40;76.90;;;7.32;53.86;94888.16;10394750;28;1581;-85
2021/01/20 13:02:18;;;;;;;;;;;8.40;77.60;;;7.31;52.95;94876.63;10405136;28;2097;-87
2021/01/20 13:07:20;;;;;;;;;;;8.30;77.00;;;7.42;53.63;94864.03;10399635;28;1967;-88
2021/01/20 13:12:22;;;;;;;;;;;8.40;77.20;;;7.39;54.43;94866.47;10405350;28;1792;-86
2021/01/20 13:17:24;;;;;;;;;;;8.40;78.00;;;7.36;55.81;94856.31;10406359;28;1204;-88
2021/01/20 13:22:27;;;;;;;;;;;9.40;78.90;;;7.39;55.35;94851.22;10399265;28;1957;-90
2021/01/20 13:27:28;;;;;;;;;;;8.40;78.90;;;7.54;54.79;94853.78;10422598;28;1899;-88
2021/01/20 13:32:30;;;;;;;;;;;8.40;78.70;;;7.44;55.71;94840.47;10420402;28;1658;-88
2021/01/20 13:37:32;;;;;;;;;;;8.40;78.90;;;7.51;55.81;94848.22;10402451;28;1980;-87
2021/01/20 13:42:34;;;;;;;;;;;9.60;79.70;;;7.65;54.85;94835.03;10381398;28;1615;-86
2021/01/20 13:47:36;;;;;;;;;;;8.50;79.20;;;7.81;54.38;94820.44;10393607;28;1898;-88
2021/01/20 13:52:38;;;;;;;;;;;8.70;78.40;;;8.02;53.51;94815.75;10403302;28;1300;-85
2021/01/20 13:57:40;;;;;;;;;;;8.80;78.10;;;8.04;53.25;94810.91;10384789;28;1672;-86
2021/01/20 14:02:42;;;;;;;;;;;9.40;77.60;;;8.08;53.07;94795.91;10393573;28;2002;-88
2021/01/20 14:07:45;;;;;;;;;;;9.40;77.20;;;8.03;53.26;94796.72;10400792;28;1886;-89
2021/01/20 14:12:47;;;;;;;;;;;9.30;77.00;;;8.08;53.35;94787.88;10397524;28;1604;-84
2021/01/20 14:17:49;;;;;;;;;;;9.00;77.30;;;8.02;57.01;94799.69;10382469;28;1201;-86
2021/01/20 14:22:51;;;;;;;;;;;9.50;78.90;;;8.01;54.72;94795.41;10349973;28;1837;-85
2021/01/20 14:27:54;;;;;;;;;;;9.00;77.90;;;8.02;53.72;94789.78;10352456;28;1989;-86
2021/01/20 14:32:56;;;;;;;;;;;8.90;77.70;;;7.96;55.01;94788.22;10361218;28;1518;-85
2021/01/20 14:37:58;;;;;;;;;;;8.90;78.80;;;7.88;56.70;94780.00;10385548;28;1757;-85
2021/01/20 14:43:00;;;;;;;;;;;9.90;80.20;;;7.79;55.52;94771.78;10387287;28;1672;-87
2021/01/20 14:48:04;;;;;;;;;;;8.80;78.80;;;7.59;56.32;94775.41;10368042;28;1914;-87
2021/01/20 14:53:08;;;;;;;;;;;8.70;79.40;;;7.32;58.44;94771.31;10369384;28;2019;-86
2021/01/20 14:58:09;;;;;;;;;;;8.40;80.70;;;7.17;58.68;94768.72;10387080;28;1739;-85
2021/01/20 15:03:11;;;;;;;;;;;8.30;80.90;;;6.98;59.14;94767.75;10388237;28;2091;-85
2021/01/20 15:08:14;;;;;;;;;;;8.20;81.10;;;6.77;61.21;94773.22;10388862;28;2021;-88
2021/01/20 15:13:16;;;;;;;;;;;8.00;82.70;;;6.59;60.78;94779.16;10385655;28;1625;-87
2021/01/20 15:18:18;;;;;;;;;;;8.60;83.00;;;6.59;60.02;94768.47;10372140;28;1707;-86
2021/01/20 15:23:20;;;;;;;;;;;7.70;82.70;;;6.39;62.08;94765.88;10391971;28;1365;-88
2021/01/20 15:28:22;;;;;;;;;;;7.60;83.70;;;6.34;59.86;94761.34;10389344;28;2052;-88
2021/01/20 15:33:24;;;;;;;;;;;7.40;83.10;;;6.11;61.93;94764.63;10351636;28;1698;-86
2021/01/20 15:38:26;;;;;;;;;;;7.30;84.30;;;6.01;61.68;94751.28;10377924;28;1320;-89
2021/01/20 15:43:27;;;;;;;;;;;7.20;84.30;;;5.90;62.25;94745.13;10405489;28;1824;-87
2021/01/20 15:48:29;;;;;;;;;;;7.10;84.40;;;5.77;62.52;94745.66;10376974;28;1993;-87
2021/01/20 15:53:31;;;;;;;;;;;7.00;84.90;;;5.65;64.92;94740.59;10363391;28;1436;-87
2021/01/20 15:58:35;;;;;;;;;;;6.90;86.30;;;5.37;64.42;94736.63;10351148;28;1997;-87
2021/01/20 16:03:36;;;;;;;;;;;6.70;86.20;;;5.07;66.72;94738.19;10370888;28;1902;-86
2021/01/20 16:08:38;;;;;;;;;;;6.40;87.60;;;4.92;67.71;94732.03;10349355;28;1911;-83
2021/01/20 16:13:40;;;;;;;;;;;6.20;89.30;;;4.91;67.80;94741.09;10378959;28;1868;-82
2021/01/20 16:18:41;;;;;;;;;;;6.10;90.20;;;4.81;67.75;94729.34;10366910;28;2026;-82
2021/01/20 16:23:43;;;;;;;;;;;6.10;90.00;;;4.96;66.39;94727.75;10379430;28;1951;-82
2021/01/20 16:28:45;;;;;;;;;;;6.10;89.40;;;5.05;64.99;94715.53;10376615;28;1788;-84
2021/01/20 16:33:47;;;;;;;;;;;7.70;89.30;;;4.77;66.25;94720.28;10366384;28;1799;-83
2021/01/20 16:38:49;;;;;;;;;;;6.10;88.60;;;4.60;65.61;94717.03;10372260;28;1568;-87
2021/01/20 16:43:51;;;;;;;;;;;5.80;88.00;;;4.43;66.81;94721.78;10351445;28;1915;-85
2021/01/20 16:48:53;;;;;;;;;;;5.60;88.80;;;4.47;65.54;94714.88;10355506;28;1894;-85
2021/01/20 16:53:56;;;;;;;;;;;5.60;88.60;;;4.43;64.99;94711.13;10382876;28;1971;-84
2021/01/20 16:58:58;;;;;;;;;;;6.40;88.30;;;4.49;64.33;94707.41;10360415;28;1724;-82
2021/01/20 17:04:00;;;;;;;;;;;5.60;87.50;;;4.51;63.56;94705.28;10385763;28;1883;-85
2021/01/20 17:09:05;;;;;;;;;;;6.30;87.20;;;4.58;63.34;94697.84;10359615;28;1628;-88
2021/01/20 17:14:06;;;;;;;;;;;5.70;86.50;;;4.54;63.39;94710.91;10355377;28;1811;-88
2021/01/20 17:19:08;;;;;;;;;;;5.70;86.40;;;4.40;63.61;94711.66;10387941;28;2235;-88
2021/01/20 17:24:10;;;;;;;;;;;6.70;86.60;;;4.26;64.85;94700.66;10356619;28;1906;-86
2021/01/20 17:29:12;;;;;;;;;;;5.50;86.80;;;4.03;63.45;94707.22;10377893;28;2274;-86
2021/01/20 17:34:16;;;;;;;;;;;6.00;86.80;;;4.01;63.14;94698.72;10361729;28;1933;-86
2021/01/20 17:39:24;;;;;;;;;;;5.50;86.30;;;4.11;62.70;94682.00;10364148;28;1611;-84
2021/01/20 17:44:49;;;;;;;;;;;6.70;86.70;;;3.94;64.74;94682.19;10355975;28;1944;-84
2021/01/20 17:49:57;;;;;;;;;;;6.90;87.80;;;3.89;63.87;94684.84;10359154;28;2031;-86
2021/01/20 17:55:20;;;;;;;;;;;4.90;86.20;;;3.69;64.84;94673.03;10382504;28;2193;-83
2021/01/20 18:00:24;;;;;;;;;;;4.80;87.10;;;3.65;64.91;94674.59;10389102;28;1950;-84
2021/01/20 18:06:01;;;;;;;;;;;5.60;87.40;;;3.41;66.58;94670.72;10379622;28;1983;-84
2021/01/20 18:11:07;;;;;;;;;;;4.70;88.10;;;3.20;66.89;94673.22;10385564;28;2015;-83
2021/01/20 18:16:17;;;;;;;;;;;4.60;88.90;;;3.13;66.86;94682.47;10384813;28;1771;-86
2021/01/20 18:21:40;;;;;;;;;;;4.30;89.40;;;3.36;66.44;94671.47;10386825;28;1995;-85
2021/01/20 18:32:41;;;;;;;;;;;5.40;89.40;;;3.13;67.74;94667.31;10362768;28;1794;-85
2021/01/20 18:37:44;;;;;;;;;;;4.30;89.40;;;2.96;68.27;94666.66;10389751;28;1885;-84
2021/01/20 18:42:46;;;;;;;;;;;4.10;90.30;;;2.91;67.88;94658.63;10390259;28;1792;-85
2021/01/20 18:47:48;;;;;;;;;;;5.40;91.10;;;2.81;69.49;94655.91;10398802;28;1982;-86
2021/01/20 18:53:05;;;;;;;;;;;4.00;91.60;;;2.78;68.70;94646.59;10397814;28;1796;-84
2021/01/20 18:58:15;;;;;;;;;;;5.20;91.90;;;2.59;70.47;94651.44;10417332;28;1877;-85
2021/01/20 19:03:21;;;;;;;;;;;4.10;92.50;;;2.55;70.72;94652.22;10380337;28;2035;-83
2021/01/20 19:14:17;;;;;;;;;;;5.20;93.40;;;2.35;71.20;94631.56;10406958;28;1808;-83
2021/01/20 19:19:22;;;;;;;;;;;3.50;93.10;;;2.29;71.07;94625.44;10387775;28;1699;-85
2021/01/20 19:24:24;;;;;;;;;;;3.50;93.50;;;2.13;71.91;94621.03;10411470;28;1889;-84
2021/01/20 19:29:36;;;;;;;;;;;3.40;94.00;;;2.34;69.31;94614.88;10386396;28;1369;-85
2021/01/20 19:34:38;;;;;;;;;;;4.20;93.80;;;2.42;70.08;94609.13;10399450;28;1930;-84
2021/01/20 19:39:46;;;;;;;;;;;3.50;93.30;;;2.39;69.70;94606.16;10373893;28;2081;-85
2021/01/20 19:45:07;;;;;;;;;;;3.50;92.80;;;2.12;70.12;94593.72;10377534;28;1981;-84
2021/01/20 19:55:53;;;;;;;;;;;3.20;92.80;;;1.79;71.50;94593.88;10425739;28;1345;-88
2021/01/20 20:00:58;;;;;;;;;;;3.10;93.80;;;1.74;71.63;94588.50;10398663;28;1962;-87
2021/01/20 20:06:03;;;;;;;;;;;3.00;93.80;;;1.68;71.00;94585.00;10403295;28;1940;-84
2021/01/20 20:11:26;;;;;;;;;;;3.70;94.20;;;1.57;71.59;94576.13;10390181;28;2114;-85
2021/01/20 20:16:28;;;;;;;;;;;2.90;94.40;;;1.60;72.64;94574.84;10400941;28;1611;-83
2021/01/20 20:21:30;;;;;;;;;;;3.30;95.30;;;1.47;73.98;94581.31;10375263;28;1883;-83
2021/01/20 20:26:35;;;;;;;;;;;2.80;95.80;;;1.35;74.35;94572.69;10395444;28;1891;-85
2021/01/20 20:37:02;;;;;;;;;;;2.50;96.10;;;1.24;72.89;94576.22;10392143;28;2009;-87
2021/01/20 20:42:04;;;;;;;;;;;2.60;95.90;;;1.21;74.80;94582.00;10377802;28;1877;-87
2021/01/20 20:47:06;;;;;;;;;;;3.80;97.60;;;1.22;75.35;94583.63;10388398;28;1957;-84
2021/01/20 20:52:08;;;;;;;;;;;2.40;97.80;;;1.08;75.29;94583.97;10409266;28;2038;-86
2021/01/20 20:57:11;;;;;;;;;;;2.40;98.00;;;1.02;75.33;94592.88;10397237;28;1631;-89
2021/01/20 21:02:17;;;;;;;;;;;3.30;98.50;;;1.04;75.04;94582.03;10384639;28;1325;-90
2021/01/20 21:07:24;;;;;;;;;;;3.60;98.90;;;1.05;74.98;94589.72;10407367;28;1899;-90
2021/01/20 21:12:35;;;;;;;;;;;3.60;99.20;;;1.03;74.59;94591.81;10954255;23;3794;-89
2021/01/20 21:17:42;;;;;;;;;;;3.30;98.90;;;0.95;75.58;94584.28;10454152;23;3536;-91
2021/01/20 21:22:45;;;;;;;;;;;2.20;98.70;;;0.87;74.96;94576.75;10439068;28;1826;-89
2021/01/20 21:27:51;;;;;;;;;;;2.70;98.90;;;0.90;75.59;94581.59;10426821;28;1957;-89
2021/01/20 21:32:54;;;;;;;;;;;3.80;99.90;;;0.84;74.56;94577.25;10519718;23;3628;-89
2021/01/20 21:38:05;;;;;;;;;;;2.00;98.70;;;0.81;74.72;94575.09;10392508;28;1682;-89
2021/01/20 21:48:26;;;;;;;;;;;3.50;99.40;;;0.82;75.38;94576.69;10403802;28;1985;-89
2021/01/20 21:53:30;;;;;;;;;;;2.00;99.10;;;0.80;75.30;94573.47;10388262;28;1608;-89
2021/01/20 21:58:36;;;;;;;;;;;3.10;99.60;;;0.76;74.82;94583.75;10381380;28;1520;-88
2021/01/20 22:03:46;;;;;;;;;;;1.90;99.00;;;0.70;75.31;94576.78;10392586;28;1355;-88
2021/01/20 22:09:05;;;;;;;;;;;1.90;99.40;;;0.60;76.77;94586.41;10381718;28;1512;-89
2021/01/20 22:14:13;;;;;;;;;;;3.70;99.90;;;0.53;76.78;94584.72;10377926;28;1599;-87
2021/01/20 22:24:43;;;;;;;;;;;2.10;99.90;;;0.39;77.69;94596.66;10404177;28;1958;-88
2021/01/20 22:29:49;;;;;;;;;;;3.10;99.90;;;0.33;78.40;94589.66;10386054;28;1678;-90
2021/01/20 22:34:53;;;;;;;;;;;1.60;99.90;;;0.27;78.87;94580.03;10388177;28;1625;-88
2021/01/20 22:39:57;;;;;;;;;;;3.40;99.90;;;0.25;77.74;94582.09;10402134;23;3578;-87
2021/01/20 22:45:16;;;;;;;;;;;1.50;99.90;;;0.26;79.34;94578.44;10390735;28;1935;-90
2021/01/20 22:50:24;;;;;;;;;;;2.90;99.90;;;0.21;79.40;94578.34;10393540;28;1946;-87
2021/01/20 23:00:58;;;;;;;;;;;1.30;99.90;;;-0.02;80.28;94553.63;10397431;28;1922;-88
2021/01/20 23:06:05;;;;;;;;;;;2.30;99.90;;;-0.09;80.75;94568.84;10420628;28;1895;-86
2021/01/20 23:11:08;;;;;;;;;;;1.20;99.90;;;-0.19;81.16;94558.09;10399928;28;2090;-88
2021/01/20 23:16:11;;;;;;;;;;;1.00;99.90;;;-0.16;81.05;94552.34;10380897;28;1341;-87
2021/01/20 23:21:14;;;;;;;;;;;2.60;99.90;;;-0.12;81.11;94553.47;10412744;28;1736;-88
2021/01/20 23:26:17;;;;;;;;;;;2.00;99.90;;;-0.12;80.66;94542.91;10409542;28;1959;-87
2021/01/20 23:31:20;;;;;;;;;;;1.00;99.90;;;-0.10;79.40;94542.66;10382686;28;1954;-88
2021/01/20 23:36:23;;;;;;;;;;;1.10;99.90;;;-0.09;79.19;94531.84;10384843;28;1931;-88
2021/01/20 23:41:26;;;;;;;;;;;2.50;99.90;;;-0.06;78.72;94533.25;10378712;28;1427;-87
2021/01/20 23:46:29;;;;;;;;;;;2.90;99.90;;;-0.06;78.77;94536.69;10376813;28;1938;-88
2021/01/20 23:51:32;;;;;;;;;;;1.10;99.90;;;-0.04;77.69;94536.44;10380126;28;1998;-89
2021/01/20 23:56:35;;;;;;;;;;;3.30;99.90;;;-0.10;77.86;94530.25;10372721;28;2120;-84
